Informes de METARS cercanos

 

LEAL - Alicante/El Alte, Spain
Distance from station: SSE 60km
Actualización: 11/08/2020 20:30
Muy nuboso
Muy nuboso
 Viento del ENE
Viento: ENE 31 km/h
Temperatura: 28°C
Heat Index: 32°C
Rocío: 25°C
Humedad: 84%
Barómetro: 1010 hPa
Clouds: Muy nuboso
Visibility: 10 km
Cloud details: Muy nuboso 396 m
2020/08/11 18:30 LEAL 111830Z 07017KT 9999 BKN013 28/25 Q1010 NOSIG
LEVC - Valencia (civ/Mi, Spain
Distance from station: NNE 84km
Actualización: 11/08/2020 20:30
Few Clouds
Few Clouds
 Viento del ENE
Viento: ENE 19 km/h
Temperatura: 29°C
Heat Index: 31°C
Rocío: 21°C
Humedad: 62%
Barómetro: 1011 hPa
Clouds: Few Clouds
Visibility: 10 km
Cloud details: Few Clouds 610 m
2020/08/11 18:30 LEVC 111830Z 07010KT 9999 FEW020 29/21 Q1011 NOSIG
 
LEAB - Albacete (civ/Mi, Spain
Distance from station: O 95km
Actualización: 11/08/2020 20:30
Thunderstorm rain, Parcialmente nuboso
Thunderstorm rain, Parcialmente nuboso
 Viento del ONO
Viento: ONO 39 km/h
Temperatura: 22°C
Rocío: 17°C
Humedad: 73%
Barómetro: 1015 hPa
Resumen: Thunderstorm Rain
Clouds: Parcialmente nuboso
Visibility: 9 km
Cloud details: Parcialmente nuboso 1829 m
2020/08/11 18:30 LEAB 111830Z 29021KT 9000 TSRA SCT060CB 22/17 Q1015 NOSIG
LERI - Alcantarilla(Sp-, Spain
Distance from station: SSO 100km
Actualización: 11/08/2020 20:00
Muy nuboso
Muy nuboso
 Viento del ENE
Viento: ENE 20 km/h
Temperatura: 28°C
Heat Index: 30°C
Rocío: 21°C
Humedad: 66%
Barómetro: 1010 hPa
Clouds: Muy nuboso
Visibility: 10 km
Cloud details: Muy nuboso 914 m
2020/08/11 18:00 LERI 111800Z 07011KT 030V100 9999 BKN030 28/21 Q1010 NOSIG
 
LELC - San Javier(Mil/C, Spain
Distance from station: S 113km
Actualización: 11/08/2020 20:30
Muy nuboso
Muy nuboso
 Viento del NE
Viento: NE 24 km/h
Temperatura: 27°C
Heat Index: 31°C
Rocío: 24°C
Humedad: 84%
Barómetro: 1009 hPa
Clouds: Muy nuboso
Visibility: 10 km
Cloud details: Muy nuboso 366 m
2020/08/11 18:30 LELC 111830Z 05013KT 020V090 9999 BKN012 27/24 Q1009 NOSIG
LEIB - Ibiza/Es Codola, Spain
Distance from station: E 186km
Actualización: 11/08/2020 20:30
Despejado
Despejado
 Viento del ENE
Viento: ENE 22 km/h
Temperatura: 27°C
Heat Index: 31°C
Rocío: 24°C
Humedad: 84%
Barómetro: 1011 hPa
Resumen: Despejado
Visibility: greater than 10 km
2020/08/11 18:30 LEIB 111830Z 07012KT 050V110 CAVOK 27/24 Q1011 NOSIG
 
LEAM - Almeria Airport, Spain
Distance from station: SSO 256km
Actualización: 11/08/2020 20:30
Few Clouds
Few Clouds
 Viento del varies
Viento: varies 9 km/h
Temperatura: 30°C
Heat Index: 36°C
Rocío: 25°C
Humedad: 75%
Barómetro: 1008 hPa
Clouds: Few Clouds
Visibility: 10 km
Cloud details: Few Clouds 2134 m
2020/08/11 18:30 LEAM 111830Z VRB05KT 9999 FEW070 30/25 Q1008 RESHRA
LEMD - Madrid/Barajas, Spain
Distance from station: NO 305km
Actualización: 11/08/2020 20:30
Lluvia, Muy nuboso
Lluvia, Muy nuboso
 Viento del NNE
Viento: NNE 11 km/h
Temperatura: 17°C
Rocío: 16°C
Humedad: 94%
Barómetro: 1015 hPa
Resumen: Lluvia
Clouds: Muy nuboso
Visibility: 9 km
Cloud details: Few Clouds 1372 m
Parcialmente nuboso 1981 m
Muy nuboso 2286 m
2020/08/11 18:30 LEMD 111830Z 03006KT 350V090 9000 RA FEW045 SCT065CB BKN075 17/16 Q1015 R88/19//95 TEMPO TSRA
 
LEPA - Palma De Mallorc, Spain
Distance from station: ENE 313km
Actualización: 11/08/2020 20:30
Despejado
Despejado
 Viento del E
Viento: E 15 km/h
Temperatura: 30°C
Heat Index: 31°C
Rocío: 18°C
Humedad: 49%
Barómetro: 1012 hPa
Resumen: Despejado
Visibility: greater than 10 km
2020/08/11 18:30 LEPA 111830Z 08008KT 050V110 CAVOK 30/18 Q1012 NOSIG